Time;durP1;ratioP1;P1;durP2;ratioP2;P2;SDS_P1;SDS_P2;PMS_P1;PMS_P2;Temp;Humidity;BMP_temperature;BMP_pressure;BME280_temperature;BME280_humidity;BME280_pressure;Samples;Min_cycle;Max_cycle;Signal;HPM_P1;HPM_P2
2022/11/26 00:00:56;;;;;;;;;;;16.00;99.50;;;;;;5087072;28;19920;-93
2022/11/26 00:03:22;;;;;;;;;;;16.10;99.50;;;;;;5086960;28;19919;-93
2022/11/26 00:05:52;;;;;;;;;;;16.10;99.50;;;;;;5087372;28;19908;-93
2022/11/26 00:08:23;;;;;;;;;;;16.00;99.40;;;;;;5086339;28;20152;-93
2022/11/26 00:10:52;;;;;;;;;;;16.10;99.40;;;;;;5086705;28;20055;-93
2022/11/26 00:13:22;;;;;;;;;;;16.10;99.30;;;;;;5085951;28;19920;-93
2022/11/26 00:15:51;;;;;;;;;;;16.10;99.30;;;;;;5087639;28;19918;-92
2022/11/26 00:18:18;;;;;;;;;;;16.10;99.20;;;;;;5088132;28;19955;-93
2022/11/26 00:20:45;;;;;;;;;;;16.10;99.10;;;;;;5089017;28;20062;-93
2022/11/26 00:23:37;;;;;;;;;;;16.10;99.10;;;;;;5088294;28;19909;-93
2022/11/26 00:26:13;;;;;;;;;;;16.10;99.00;;;;;;5047887;28;19909;-93
2022/11/26 00:28:44;;;;;;;;;;;16.20;98.90;;;;;;5087860;28;20179;-93
2022/11/26 00:31:13;;;;;;;;;;;16.10;98.80;;;;;;5086932;28;20009;-93
2022/11/26 00:33:39;;;;;;;;;;;16.20;98.80;;;;;;5088257;28;19916;-93
2022/11/26 00:36:14;;;;;;;;;;;16.20;98.80;;;;;;5088757;28;20202;-93
2022/11/26 00:38:40;;;;;;;;;;;16.20;98.70;;;;;;5072876;28;19920;-92
2022/11/26 00:41:09;;;;;;;;;;;16.20;98.70;;;;;;5089944;28;20166;-92
2022/11/26 00:43:35;;;;;;;;;;;16.20;98.60;;;;;;5089815;28;19920;-93
2022/11/26 00:46:00;;;;;;;;;;;16.20;98.60;;;;;;5091818;28;19908;-93
2022/11/26 00:48:26;;;;;;;;;;;16.20;98.60;;;;;;5090509;28;19935;-93
2022/11/26 00:50:51;;;;;;;;;;;16.20;98.50;;;;;;5091358;28;20406;-93
2022/11/26 00:53:19;;;;;;;;;;;16.20;98.50;;;;;;5091313;28;19912;-92
2022/11/26 00:55:47;;;;;;;;;;;16.20;98.50;;;;;;5091474;28;19916;-93
2022/11/26 00:58:19;;;;;;;;;;;16.20;98.50;;;;;;5090037;28;20147;-93
2022/11/26 01:00:46;;;;;;;;;;;16.20;98.40;;;;;;5091495;28;19909;-93
2022/11/26 01:03:11;;;;;;;;;;;16.20;98.40;;;;;;5090628;28;19909;-93
2022/11/26 01:05:37;;;;;;;;;;;16.20;98.40;;;;;;5090822;28;19915;-92
2022/11/26 01:08:15;;;;;;;;;;;16.20;98.30;;;;;;5090461;28;19919;-92
2022/11/26 01:10:42;;;;;;;;;;;16.20;98.30;;;;;;5089897;28;19913;-93
2022/11/26 01:13:09;;;;;;;;;;;16.20;98.30;;;;;;5091587;28;19909;-93
2022/11/26 01:15:35;;;;;;;;;;;16.10;98.20;;;;;;5091046;28;19958;-93
2022/11/26 01:18:11;;;;;;;;;;;16.20;98.30;;;;;;5092279;28;20004;-92
2022/11/26 01:20:37;;;;;;;;;;;16.10;98.20;;;;;;5093291;28;19969;-93
2022/11/26 01:23:02;;;;;;;;;;;16.10;98.20;;;;;;5093684;28;19916;-92
2022/11/26 01:25:28;;;;;;;;;;;16.10;98.20;;;;;;5092402;28;19973;-93
2022/11/26 01:27:57;;;;;;;;;;;16.10;98.20;;;;;;5092330;28;19955;-93
2022/11/26 01:30:24;;;;;;;;;;;16.10;98.20;;;;;;5091568;28;19909;-93
2022/11/26 01:32:53;;;;;;;;;;;16.10;98.20;;;;;;5092629;28;20206;-92
2022/11/26 01:35:20;;;;;;;;;;;16.10;98.10;;;;;;5076180;28;20176;-91
2022/11/26 01:37:46;;;;;;;;;;;16.10;98.10;;;;;;5091013;28;19920;-93
2022/11/26 01:40:14;;;;;;;;;;;16.10;98.10;;;;;;5091984;28;19912;-92
2022/11/26 01:42:48;;;;;;;;;;;16.10;98.10;;;;;;5076764;28;20072;-93
2022/11/26 01:45:17;;;;;;;;;;;16.10;98.10;;;;;;5094315;28;20249;-92
2022/11/26 01:47:47;;;;;;;;;;;16.10;98.00;;;;;;5093377;28;20168;-93
2022/11/26 01:50:31;;;;;;;;;;;16.10;98.00;;;;;;5091432;28;19935;-93
2022/11/26 01:53:00;;;;;;;;;;;16.10;98.20;;;;;;5057828;28;19909;-93
2022/11/26 01:55:32;;;;;;;;;;;16.10;98.00;;;;;;5070411;28;19991;-93
2022/11/26 01:57:58;;;;;;;;;;;16.10;97.90;;;;;;5086909;28;19909;-93
2022/11/26 02:00:27;;;;;;;;;;;16.10;97.90;;;;;;5086356;28;20061;-93
2022/11/26 02:02:52;;;;;;;;;;;16.10;97.90;;;;;;5088422;28;19916;-93
2022/11/26 02:05:29;;;;;;;;;;;16.10;97.90;;;;;;5088142;28;20155;-93
2022/11/26 02:07:58;;;;;;;;;;;16.10;97.80;;;;;;5089007;28;20278;-93
2022/11/26 02:10:27;;;;;;;;;;;16.10;97.80;;;;;;5073660;28;19991;-93
2022/11/26 02:12:53;;;;;;;;;;;16.00;97.80;;;;;;5088945;28;20003;-92
2022/11/26 02:15:18;;;;;;;;;;;16.10;97.80;;;;;;5090402;28;19999;-93
2022/11/26 02:17:51;;;;;;;;;;;16.10;97.80;;;;;;5090244;28;19978;-92
2022/11/26 02:20:36;;;;;;;;;;;16.10;97.80;;;;;;5090711;28;19913;-93
2022/11/26 02:23:20;;;;;;;;;;;16.00;97.80;;;;;;5076791;28;19908;-93
2022/11/26 02:26:06;;;;;;;;;;;16.00;97.80;;;;;;5073869;28;19913;-93
2022/11/26 02:28:42;;;;;;;;;;;16.00;97.80;;;;;;5043643;28;19937;-93
2022/11/26 02:31:09;;;;;;;;;;;16.00;97.70;;;;;;5092369;28;20217;-93
2022/11/26 02:33:52;;;;;;;;;;;16.00;97.70;;;;;;5090099;28;19935;-93
2022/11/26 02:36:21;;;;;;;;;;;16.00;97.70;;;;;;5092811;28;20254;-93
2022/11/26 02:38:49;;;;;;;;;;;16.00;97.70;;;;;;5090609;28;19912;-93
2022/11/26 02:41:15;;;;;;;;;;;16.00;97.70;;;;;;5090660;28;19909;-93
2022/11/26 02:43:44;;;;;;;;;;;16.00;97.70;;;;;;5089197;28;19918;-93
2022/11/26 02:46:15;;;;;;;;;;;16.00;97.70;;;;;;5094291;28;19915;-93
2022/11/26 02:48:46;;;;;;;;;;;15.90;97.60;;;;;;5090882;28;19909;-93
2022/11/26 02:51:14;;;;;;;;;;;15.90;97.60;;;;;;5091243;28;20190;-93
2022/11/26 02:53:44;;;;;;;;;;;15.90;97.60;;;;;;5089573;28;20047;-93
2022/11/26 02:56:14;;;;;;;;;;;15.90;97.60;;;;;;5088694;28;19908;-93
2022/11/26 02:58:40;;;;;;;;;;;15.90;97.50;;;;;;5088899;28;19971;-93
2022/11/26 03:01:11;;;;;;;;;;;15.90;97.50;;;;;;5088502;28;20007;-94
2022/11/26 03:03:45;;;;;;;;;;;15.90;97.50;;;;;;5090392;28;20326;-93
2022/11/26 03:06:11;;;;;;;;;;;15.90;97.50;;;;;;5091242;28;19965;-93
2022/11/26 03:08:40;;;;;;;;;;;15.90;97.50;;;;;;5091607;28;20194;-93
2022/11/26 03:11:12;;;;;;;;;;;15.90;97.50;;;;;;5093355;28;19955;-93
2022/11/26 03:13:38;;;;;;;;;;;15.90;97.40;;;;;;5092306;28;19940;-92
2022/11/26 03:16:04;;;;;;;;;;;15.90;97.40;;;;;;5092526;28;19959;-93
2022/11/26 03:18:35;;;;;;;;;;;15.90;97.40;;;;;;5091500;28;19956;-93
2022/11/26 03:21:01;;;;;;;;;;;15.90;97.40;;;;;;5092487;28;19908;-93
2022/11/26 03:23:27;;;;;;;;;;;15.90;97.40;;;;;;5091720;28;19951;-93
2022/11/26 03:25:52;;;;;;;;;;;15.80;97.40;;;;;;5092580;28;19912;-93
2022/11/26 03:28:18;;;;;;;;;;;15.80;97.40;;;;;;5091630;28;19913;-93
2022/11/26 03:30:44;;;;;;;;;;;15.80;97.40;;;;;;5093383;28;20203;-93
2022/11/26 03:33:12;;;;;;;;;;;15.80;97.40;;;;;;5076057;28;19996;-93
2022/11/26 03:35:37;;;;;;;;;;;15.80;97.40;;;;;;5092305;28;19973;-93
2022/11/26 03:38:03;;;;;;;;;;;15.80;97.40;;;;;;5092170;28;19908;-93
2022/11/26 03:40:30;;;;;;;;;;;15.80;97.50;;;;;;5093066;28;20387;-93
2022/11/26 03:42:55;;;;;;;;;;;15.80;97.40;;;;;;5092665;28;19919;-93
2022/11/26 03:45:21;;;;;;;;;;;15.80;97.40;;;;;;5093693;28;19908;-94
2022/11/26 03:47:46;;;;;;;;;;;15.80;97.40;;;;;;5092172;28;19970;-93
2022/11/26 03:50:12;;;;;;;;;;;15.80;97.40;;;;;;5093685;28;19908;-93
2022/11/26 03:52:38;;;;;;;;;;;15.70;97.40;;;;;;5075383;28;19920;-93
2022/11/26 03:55:04;;;;;;;;;;;15.70;97.70;;;;;;5092933;28;20259;-93
2022/11/26 03:57:32;;;;;;;;;;;15.70;97.50;;;;;;5092145;28;19940;-93
2022/11/26 04:00:01;;;;;;;;;;;15.70;97.50;;;;;;5092361;28;19974;-93
2022/11/26 04:02:27;;;;;;;;;;;15.70;97.50;;;;;;5090024;28;19909;-93
2022/11/26 04:04:52;;;;;;;;;;;15.70;97.40;;;;;;5090174;28;19919;-94
2022/11/26 04:07:21;;;;;;;;;;;15.70;97.40;;;;;;5090378;28;19969;-93
2022/11/26 04:09:47;;;;;;;;;;;15.70;97.40;;;;;;5091239;28;19998;-93
2022/11/26 04:12:12;;;;;;;;;;;15.70;97.50;;;;;;5091074;28;20286;-93
2022/11/26 04:14:38;;;;;;;;;;;15.70;97.50;;;;;;5089980;28;20381;-93
2022/11/26 04:17:03;;;;;;;;;;;15.70;97.50;;;;;;5091461;28;19912;-93
2022/11/26 04:19:29;;;;;;;;;;;15.70;97.50;;;;;;5090223;28;20152;-93
2022/11/26 04:21:57;;;;;;;;;;;15.70;97.40;;;;;;5091220;28;20391;-93
2022/11/26 04:24:23;;;;;;;;;;;15.70;97.40;;;;;;5090880;28;19909;-93
2022/11/26 04:26:52;;;;;;;;;;;15.70;97.40;;;;;;5090042;28;19966;-93
2022/11/26 04:29:21;;;;;;;;;;;15.60;97.40;;;;;;5088930;28;20194;-93
2022/11/26 04:31:46;;;;;;;;;;;15.60;97.40;;;;;;5089465;28;20206;-93
2022/11/26 04:34:12;;;;;;;;;;;15.60;97.40;;;;;;5090776;28;20325;-93
2022/11/26 04:36:40;;;;;;;;;;;15.60;97.30;;;;;;5091195;28;20175;-93
2022/11/26 04:39:06;;;;;;;;;;;15.60;97.30;;;;;;5090969;28;19983;-93
2022/11/26 04:41:31;;;;;;;;;;;15.60;97.30;;;;;;5089589;28;19983;-93
2022/11/26 04:43:57;;;;;;;;;;;15.60;97.30;;;;;;5092114;28;19919;-94
2022/11/26 04:46:26;;;;;;;;;;;15.60;97.30;;;;;;5093254;28;20020;-93
2022/11/26 04:48:51;;;;;;;;;;;15.60;97.30;;;;;;5096817;28;19916;-92
2022/11/26 04:51:17;;;;;;;;;;;15.60;97.60;;;;;;5078081;28;20206;-93
2022/11/26 04:53:45;;;;;;;;;;;15.60;97.30;;;;;;5094157;28;19994;-93
2022/11/26 04:56:11;;;;;;;;;;;15.60;97.30;;;;;;5093606;28;19919;-93
2022/11/26 04:58:39;;;;;;;;;;;15.60;97.30;;;;;;5094356;28;19912;-93
2022/11/26 05:01:17;;;;;;;;;;;15.60;97.30;;;;;;5095049;28;19909;-93
2022/11/26 05:04:36;;;;;;;;;;;15.50;97.30;;;;;;5079475;28;19913;-93
2022/11/26 05:07:05;;;;;;;;;;;15.50;97.30;;;;;;5065908;28;19909;-93
2022/11/26 05:09:33;;;;;;;;;;;15.50;97.30;;;;;;5094535;28;19908;-93
2022/11/26 05:12:02;;;;;;;;;;;15.50;97.30;;;;;;5094123;28;20007;-93
2022/11/26 05:14:28;;;;;;;;;;;15.50;97.30;;;;;;5095852;28;20007;-93
2022/11/26 05:17:00;;;;;;;;;;;15.50;97.30;;;;;;5095017;28;20020;-93
2022/11/26 05:19:34;;;;;;;;;;;15.50;97.30;;;;;;5077436;28;19978;-93
2022/11/26 05:22:03;;;;;;;;;;;15.50;97.30;;;;;;5093160;28;19916;-93
2022/11/26 05:24:32;;;;;;;;;;;15.40;97.30;;;;;;5094321;28;20150;-94
2022/11/26 05:26:57;;;;;;;;;;;15.40;97.30;;;;;;5092532;28;19909;-93
2022/11/26 05:29:23;;;;;;;;;;;15.40;97.40;;;;;;5094092;28;20011;-93
2022/11/26 05:31:51;;;;;;;;;;;15.30;97.40;;;;;;5093344;28;19934;-94
2022/11/26 05:34:20;;;;;;;;;;;15.30;97.40;;;;;;5093747;28;19908;-93
2022/11/26 05:36:45;;;;;;;;;;;15.40;97.60;;;;;;5092949;28;20241;-93
2022/11/26 05:39:11;;;;;;;;;;;15.90;96.30;;;;;;5091778;28;20267;-93
2022/11/26 05:41:39;;;;;;;;;;;16.80;94.00;;;;;;5093049;28;19931;-93
2022/11/26 05:44:05;;;;;;;;;;;17.20;92.70;;;;;;5090822;28;19989;-93
2022/11/26 05:46:31;;;;;;;;;;;17.40;91.90;;;;;;5091854;28;19912;-93
2022/11/26 05:48:56;;;;;;;;;;;17.60;91.20;;;;;;5092739;28;19919;-93
2022/11/26 05:51:22;;;;;;;;;;;17.80;90.30;;;;;;5094275;28;19908;-93
2022/11/26 05:53:50;;;;;;;;;;;18.10;89.20;;;;;;5094213;28;19995;-93
2022/11/26 05:56:19;;;;;;;;;;;18.40;86.70;;;;;;5095742;28;19938;-93
2022/11/26 05:58:48;;;;;;;;;;;18.50;85.20;;;;;;5092762;28;19936;-93
2022/11/26 06:01:17;;;;;;;;;;;18.50;84.40;;;;;;5094000;28;19920;-93
2022/11/26 06:03:45;;;;;;;;;;;18.60;83.90;;;;;;5094115;28;19921;-94
2022/11/26 06:06:14;;;;;;;;;;;18.60;83.40;;;;;;5095035;28;19912;-93
2022/11/26 06:08:39;;;;;;;;;;;18.60;83.20;;;;;;5093365;28;19913;-93
2022/11/26 06:11:08;;;;;;;;;;;18.60;83.20;;;;;;5092998;28;19919;-92
2022/11/26 06:13:33;;;;;;;;;;;18.60;83.20;;;;;;5094739;28;19916;-93
2022/11/26 06:15:59;;;;;;;;;;;18.50;83.40;;;;;;5093205;28;20002;-93
2022/11/26 06:18:24;;;;;;;;;;;18.40;83.90;;;;;;5091776;28;20124;-93
2022/11/26 06:20:53;;;;;;;;;;;18.30;84.40;;;;;;5091705;28;19919;-93
2022/11/26 06:23:19;;;;;;;;;;;18.20;85.20;;;;;;5092859;28;19952;-93
2022/11/26 06:25:44;;;;;;;;;;;18.10;85.90;;;;;;5092639;28;20215;-93
2022/11/26 06:28:13;;;;;;;;;;;18.00;86.60;;;;;;5090768;28;19908;-93
2022/11/26 06:30:57;;;;;;;;;;;17.90;87.30;;;;;;5093057;28;19908;-93
2022/11/26 06:33:22;;;;;;;;;;;17.80;88.10;;;;;;5093860;28;19908;-93
2022/11/26 06:35:48;;;;;;;;;;;17.70;88.90;;;;;;5092332;28;20248;-94
2022/11/26 06:38:16;;;;;;;;;;;17.60;89.70;;;;;;5092762;28;19919;-94
2022/11/26 06:40:45;;;;;;;;;;;17.50;90.10;;;;;;5093486;28;20263;-94
2022/11/26 06:43:11;;;;;;;;;;;17.40;90.40;;;;;;5094270;28;19923;-93
2022/11/26 06:45:36;;;;;;;;;;;17.30;90.70;;;;;;5095059;28;19909;-93
2022/11/26 06:48:02;;;;;;;;;;;17.20;91.00;;;;;;5093581;28;19971;-93
2022/11/26 06:50:27;;;;;;;;;;;17.10;91.20;;;;;;5094079;28;20296;-93
2022/11/26 06:52:53;;;;;;;;;;;17.00;91.50;;;;;;5093555;28;19909;-93
2022/11/26 06:55:22;;;;;;;;;;;16.90;92.00;;;;;;5093720;28;19932;-93
2022/11/26 06:57:49;;;;;;;;;;;16.90;92.00;;;;;;5092108;28;20303;-93
2022/11/26 07:00:15;;;;;;;;;;;16.80;92.20;;;;;;5090824;28;20174;-92
2022/11/26 07:02:43;;;;;;;;;;;16.70;92.40;;;;;;5092949;28;19908;-93
2022/11/26 07:05:09;;;;;;;;;;;16.70;92.60;;;;;;5092954;28;19916;-94
2022/11/26 07:07:40;;;;;;;;;;;16.60;92.80;;;;;;5092185;28;19914;-93
2022/11/26 07:10:06;;;;;;;;;;;16.60;93.20;;;;;;5091723;28;19908;-94
2022/11/26 07:12:34;;;;;;;;;;;16.50;93.10;;;;;;5092516;28;19916;-94
2022/11/26 07:15:00;;;;;;;;;;;16.50;93.20;;;;;;5093814;28;19918;-93
2022/11/26 07:17:26;;;;;;;;;;;16.40;93.30;;;;;;5091683;28;19912;-93
2022/11/26 07:19:53;;;;;;;;;;;16.40;93.40;;;;;;5093837;28;20282;-93
2022/11/26 07:22:22;;;;;;;;;;;16.40;93.50;;;;;;5092217;28;19920;-93
2022/11/26 07:24:53;;;;;;;;;;;16.30;93.50;;;;;;5092467;28;19908;-94
2022/11/26 07:27:19;;;;;;;;;;;16.30;93.60;;;;;;5089681;28;20002;-93
2022/11/26 07:29:47;;;;;;;;;;;16.30;93.70;;;;;;5088668;28;19994;-93
2022/11/26 07:32:13;;;;;;;;;;;16.30;93.80;;;;;;5090037;28;19940;-94
2022/11/26 07:34:38;;;;;;;;;;;16.30;93.70;;;;;;5092197;28;19943;-94
2022/11/26 07:37:04;;;;;;;;;;;16.30;93.70;;;;;;5090159;28;20282;-94
2022/11/26 07:39:29;;;;;;;;;;;16.40;93.60;;;;;;5090894;28;19913;-93
2022/11/26 07:41:58;;;;;;;;;;;16.40;93.50;;;;;;5090285;28;19916;-93
2022/11/26 07:44:24;;;;;;;;;;;16.50;93.30;;;;;;5091596;28;20164;-93
2022/11/26 07:46:49;;;;;;;;;;;16.60;93.00;;;;;;5087964;28;19908;-94
2022/11/26 07:49:15;;;;;;;;;;;16.70;92.60;;;;;;5089348;28;19916;-93
2022/11/26 07:51:44;;;;;;;;;;;16.90;92.20;;;;;;5090572;28;19956;-94
2022/11/26 07:54:11;;;;;;;;;;;17.00;91.80;;;;;;5090679;28;20262;-92
2022/11/26 07:56:39;;;;;;;;;;;17.20;91.30;;;;;;5073722;28;20151;-94
2022/11/26 07:59:06;;;;;;;;;;;17.30;90.60;;;;;;5090353;28;20282;-93
2022/11/26 08:01:35;;;;;;;;;;;17.50;90.20;;;;;;5089482;28;19909;-94
2022/11/26 08:04:03;;;;;;;;;;;17.50;89.70;;;;;;5090642;28;19916;-94
2022/11/26 08:06:29;;;;;;;;;;;17.60;89.40;;;;;;5074338;28;19913;-93
2022/11/26 08:08:58;;;;;;;;;;;17.60;89.10;;;;;;5090887;28;19913;-94
2022/11/26 08:11:28;;;;;;;;;;;17.70;89.00;;;;;;5092444;28;19940;-94
2022/11/26 08:13:55;;;;;;;;;;;17.70;89.00;;;;;;5092027;28;19909;-94
2022/11/26 08:16:21;;;;;;;;;;;17.70;89.00;;;;;;5093401;28;19995;-94
2022/11/26 08:19:00;;;;;;;;;;;17.70;89.20;;;;;;5092375;28;19912;-94
2022/11/26 08:21:29;;;;;;;;;;;17.70;89.30;;;;;;5092205;28;20028;-94
2022/11/26 08:23:57;;;;;;;;;;;17.70;89.30;;;;;;5092521;28;19908;-93
2022/11/26 08:26:26;;;;;;;;;;;17.70;89.20;;;;;;5094533;28;20270;-94
2022/11/26 08:28:54;;;;;;;;;;;17.80;89.20;;;;;;5095352;28;19979;-94
2022/11/26 08:31:21;;;;;;;;;;;17.80;88.90;;;;;;5094326;28;19968;-94
2022/11/26 08:33:49;;;;;;;;;;;18.10;88.30;;;;;;5094322;28;19912;-93
2022/11/26 08:36:15;;;;;;;;;;;18.30;86.40;;;;;;5094638;28;19920;-94
2022/11/26 08:38:40;;;;;;;;;;;18.70;84.70;;;;;;5091633;28;20163;-94
2022/11/26 08:41:07;;;;;;;;;;;19.00;82.50;;;;;;5092489;28;20274;-93
2022/11/26 08:43:34;;;;;;;;;;;19.20;80.50;;;;;;5093307;28;19916;-93
2022/11/26 08:46:00;;;;;;;;;;;19.50;78.60;;;;;;5090742;28;19908;-94
2022/11/26 08:48:26;;;;;;;;;;;19.70;77.20;;;;;;5090666;28;20137;-94
2022/11/26 08:51:03;;;;;;;;;;;19.90;75.90;;;;;;5093665;28;20282;-94
2022/11/26 08:53:29;;;;;;;;;;;20.00;75.20;;;;;;5092721;28;19904;-94
2022/11/26 08:56:04;;;;;;;;;;;20.20;73.50;;;;;;5092132;28;19923;-94
2022/11/26 08:58:31;;;;;;;;;;;20.30;72.90;;;;;;5090162;28;19913;-94
2022/11/26 09:01:20;;;;;;;;;;;20.40;72.50;;;;;;5090963;28;20286;-94
2022/11/26 09:03:46;;;;;;;;;;;20.50;71.10;;;;;;5067187;28;20175;-94
2022/11/26 09:06:13;;;;;;;;;;;20.60;70.40;;;;;;5092513;28;19919;-93
2022/11/26 09:11:27;;;;;;;;;;;20.60;69.80;;;;;;5075022;28;19973;-94
2022/11/26 09:13:53;;;;;;;;;;;20.70;68.60;;;;;;5092931;28;19999;-93
2022/11/26 09:16:22;;;;;;;;;;;20.70;68.30;;;;;;5092291;28;19919;-93
2022/11/26 09:18:49;;;;;;;;;;;20.40;68.40;;;;;;5093029;28;19927;-93
2022/11/26 09:21:14;;;;;;;;;;;20.40;68.50;;;;;;5091542;28;20266;-93
2022/11/26 09:23:41;;;;;;;;;;;20.40;68.40;;;;;;5092321;28;20385;-93
2022/11/26 09:26:06;;;;;;;;;;;20.30;68.50;;;;;;5090712;28;20158;-93
2022/11/26 09:28:32;;;;;;;;;;;20.20;68.60;;;;;;5090712;28;19908;-94
2022/11/26 09:31:04;;;;;;;;;;;20.10;69.10;;;;;;5091266;28;19919;-93
2022/11/26 09:33:30;;;;;;;;;;;20.00;69.60;;;;;;5087371;28;20291;-93
2022/11/26 09:36:04;;;;;;;;;;;20.00;70.10;;;;;;5088694;28;19999;-93
2022/11/26 09:38:29;;;;;;;;;;;19.90;70.50;;;;;;5089388;28;20051;-93
2022/11/26 09:40:55;;;;;;;;;;;19.80;70.80;;;;;;5090867;28;20350;-93
2022/11/26 09:43:28;;;;;;;;;;;19.80;71.50;;;;;;5070604;28;19912;-93
2022/11/26 09:45:57;;;;;;;;;;;19.70;71.90;;;;;;5069303;28;19984;-93
2022/11/26 09:48:24;;;;;;;;;;;19.60;72.40;;;;;;5067027;28;19908;-94
2022/11/26 09:50:51;;;;;;;;;;;19.50;72.90;;;;;;5085630;28;19909;-93
2022/11/26 09:53:29;;;;;;;;;;;19.50;73.60;;;;;;5087305;28;19976;-94
2022/11/26 09:55:58;;;;;;;;;;;19.40;74.50;;;;;;5086076;28;20106;-94
2022/11/26 09:58:34;;;;;;;;;;;19.30;75.60;;;;;;5087523;28;19909;-93
2022/11/26 10:01:02;;;;;;;;;;;19.30;76.90;;;;;;5088831;28;19908;-93
2022/11/26 10:03:35;;;;;;;;;;;19.30;77.80;;;;;;5086587;28;19916;-93
2022/11/26 10:06:06;;;;;;;;;;;19.30;78.30;;;;;;5086788;28;19909;-93
2022/11/26 10:08:55;;;;;;;;;;;19.30;78.90;;;;;;5088629;28;19909;-93
2022/11/26 10:11:39;;;;;;;;;;;19.30;79.60;;;;;;5088543;28;19908;-94
2022/11/26 10:14:25;;;;;;;;;;;19.40;79.50;;;;;;5069411;28;19909;-93
2022/11/26 10:17:06;;;;;;;;;;;19.30;79.40;;;;;;5070888;28;19908;-93
2022/11/26 10:19:38;;;;;;;;;;;19.30;79.30;;;;;;5086733;28;19938;-93
2022/11/26 10:22:09;;;;;;;;;;;19.20;78.90;;;;;;5069852;28;19908;-93
2022/11/26 10:24:40;;;;;;;;;;;19.20;78.90;;;;;;5086540;28;19940;-93
2022/11/26 10:27:14;;;;;;;;;;;19.10;78.70;;;;;;5082809;28;19908;-93
2022/11/26 10:29:41;;;;;;;;;;;19.10;78.70;;;;;;5084696;28;19916;-94
2022/11/26 10:32:14;;;;;;;;;;;19.00;78.70;;;;;;5085721;28;19951;-93
2022/11/26 10:34:44;;;;;;;;;;;19.00;78.90;;;;;;5085065;28;19978;-93
2022/11/26 10:37:10;;;;;;;;;;;18.90;79.20;;;;;;5086348;28;19943;-93
2022/11/26 10:39:35;;;;;;;;;;;18.90;79.60;;;;;;5086175;28;19913;-93
2022/11/26 10:42:21;;;;;;;;;;;18.80;80.10;;;;;;5086220;28;19912;-93
2022/11/26 10:44:51;;;;;;;;;;;18.70;80.50;;;;;;5068055;28;19939;-93
2022/11/26 10:47:24;;;;;;;;;;;18.70;81.00;;;;;;5084392;28;19912;-93
2022/11/26 10:49:51;;;;;;;;;;;18.60;81.40;;;;;;5084588;28;20258;-93
2022/11/26 10:52:21;;;;;;;;;;;18.60;81.80;;;;;;5084413;28;20369;-93
2022/11/26 10:55:07;;;;;;;;;;;18.60;82.20;;;;;;5083321;28;19908;-93
2022/11/26 10:57:35;;;;;;;;;;;18.60;82.50;;;;;;5083322;28;19916;-93
2022/11/26 11:00:01;;;;;;;;;;;18.50;82.80;;;;;;5081864;28;19912;-93
2022/11/26 11:02:40;;;;;;;;;;;18.50;83.00;;;;;;5083870;28;19968;-93
2022/11/26 11:05:10;;;;;;;;;;;18.50;83.10;;;;;;5084483;28;19909;-93
2022/11/26 11:07:39;;;;;;;;;;;18.50;83.30;;;;;;5084888;28;19932;-93
2022/11/26 11:10:08;;;;;;;;;;;18.50;83.40;;;;;;5067691;28;19909;-93
2022/11/26 11:12:38;;;;;;;;;;;18.50;83.30;;;;;;5068342;28;20270;-93
2022/11/26 11:15:19;;;;;;;;;;;18.50;83.30;;;;;;5085303;28;19908;-94
2022/11/26 11:17:53;;;;;;;;;;;18.50;83.30;;;;;;5068163;28;20288;-93
2022/11/26 11:20:27;;;;;;;;;;;18.50;83.40;;;;;;5083983;28;20202;-93
2022/11/26 11:22:57;;;;;;;;;;;18.50;83.30;;;;;;5082485;28;19916;-93
2022/11/26 11:25:24;;;;;;;;;;;18.60;83.30;;;;;;5083329;28;19919;-93
2022/11/26 11:27:49;;;;;;;;;;;18.50;83.30;;;;;;5083943;28;19916;-93
2022/11/26 11:30:29;;;;;;;;;;;18.50;83.50;;;;;;5083290;28;19915;-93
2022/11/26 11:33:24;;;;;;;;;;;18.50;83.60;;;;;;5084042;28;20190;-93
2022/11/26 11:36:09;;;;;;;;;;;18.50;83.90;;;;;;5012626;28;19921;-93
2022/11/26 11:38:50;;;;;;;;;;;18.40;84.10;;;;;;5067401;28;20357;-93
2022/11/26 11:41:21;;;;;;;;;;;18.40;84.50;;;;;;5064708;28;20416;-93
2022/11/26 11:43:47;;;;;;;;;;;18.40;84.80;;;;;;5068161;28;19916;-93
2022/11/26 11:46:21;;;;;;;;;;;18.40;85.30;;;;;;5082885;28;19916;-93
2022/11/26 11:48:46;;;;;;;;;;;18.30;85.70;;;;;;5083051;28;19969;-93
2022/11/26 11:51:32;;;;;;;;;;;18.30;86.20;;;;;;5064629;28;19970;-93
2022/11/26 11:54:17;;;;;;;;;;;18.30;86.70;;;;;;5063615;28;20119;-93
2022/11/26 11:56:44;;;;;;;;;;;18.30;87.20;;;;;;5065382;28;19916;-93
2022/11/26 11:59:21;;;;;;;;;;;18.30;87.70;;;;;;5084151;28;19924;-93
2022/11/26 12:02:12;;;;;;;;;;;18.30;88.10;;;;;;5081788;28;19908;-93
2022/11/26 12:04:41;;;;;;;;;;;18.30;88.50;;;;;;5083853;28;19909;-93
2022/11/26 12:07:25;;;;;;;;;;;18.20;88.90;;;;;;5066551;28;20028;-93
2022/11/26 12:10:13;;;;;;;;;;;18.20;89.60;;;;;;5067665;28;20048;-92
2022/11/26 12:12:48;;;;;;;;;;;18.20;89.50;;;;;;5035903;28;19944;-93
2022/11/26 12:15:20;;;;;;;;;;;18.10;89.70;;;;;;5084690;28;19915;-93
2022/11/26 12:18:04;;;;;;;;;;;18.10;90.00;;;;;;5067727;28;20297;-93
2022/11/26 12:20:56;;;;;;;;;;;18.00;90.20;;;;;;5067155;28;19920;-93
2022/11/26 12:23:37;;;;;;;;;;;18.00;90.40;;;;;;5043117;28;20236;-93
2022/11/26 12:26:10;;;;;;;;;;;17.90;90.50;;;;;;5083729;28;20007;-92
2022/11/26 12:28:41;;;;;;;;;;;17.90;90.60;;;;;;5082881;28;19983;-93
2022/11/26 12:31:21;;;;;;;;;;;17.90;90.80;;;;;;5065322;28;19909;-93
2022/11/26 12:33:49;;;;;;;;;;;17.80;90.80;;;;;;5082450;28;19908;-93
2022/11/26 12:36:20;;;;;;;;;;;17.80;90.90;;;;;;5083721;28;19916;-93
2022/11/26 12:39:16;;;;;;;;;;;17.80;91.00;;;;;;5066475;28;19952;-94
2022/11/26 12:41:55;;;;;;;;;;;17.80;91.10;;;;;;5060329;28;20059;-93
2022/11/26 12:44:33;;;;;;;;;;;17.70;91.20;;;;;;5085258;28;19909;-93
2022/11/26 12:47:17;;;;;;;;;;;17.70;91.20;;;;;;5084171;28;19955;-93
2022/11/26 12:49:54;;;;;;;;;;;17.70;91.30;;;;;;5070773;28;19927;-93
2022/11/26 12:52:27;;;;;;;;;;;17.70;91.40;;;;;;5086223;28;19974;-93
2022/11/26 12:55:01;;;;;;;;;;;17.60;91.40;;;;;;5068355;28;20286;-92
2022/11/26 12:57:38;;;;;;;;;;;17.60;91.50;;;;;;5085644;28;19974;-93
2022/11/26 13:00:05;;;;;;;;;;;17.60;91.60;;;;;;5087490;28;19913;-93
2022/11/26 13:02:33;;;;;;;;;;;17.60;91.90;;;;;;5068023;28;19961;-93
2022/11/26 13:04:58;;;;;;;;;;;17.60;93.60;;;;;;5083899;28;20042;-93
2022/11/26 13:07:43;;;;;;;;;;;17.60;95.00;;;;;;5083549;28;19909;-93
2022/11/26 13:10:14;;;;;;;;;;;17.60;94.70;;;;;;5070081;28;20119;-93
2022/11/26 13:12:46;;;;;;;;;;;17.60;94.20;;;;;;5071275;28;19913;-93
2022/11/26 13:15:18;;;;;;;;;;;17.60;93.90;;;;;;5069902;28;20267;-93
2022/11/26 13:17:49;;;;;;;;;;;17.50;93.80;;;;;;5069192;28;20290;-92
2022/11/26 13:20:34;;;;;;;;;;;17.50;93.70;;;;;;5089056;28;19989;-93
2022/11/26 13:23:18;;;;;;;;;;;17.50;93.70;;;;;;5069076;28;19909;-93
2022/11/26 13:25:44;;;;;;;;;;;17.50;93.70;;;;;;5072765;28;19908;-92
2022/11/26 13:28:13;;;;;;;;;;;17.40;93.80;;;;;;5073234;28;19912;-93
2022/11/26 13:30:51;;;;;;;;;;;17.40;93.80;;;;;;5071687;28;19975;-93
2022/11/26 13:33:35;;;;;;;;;;;17.40;93.80;;;;;;5072925;28;19936;-92
2022/11/26 13:36:10;;;;;;;;;;;17.40;93.80;;;;;;5071940;28;19913;-93
2022/11/26 13:38:54;;;;;;;;;;;17.40;93.80;;;;;;5069802;28;19909;-92
2022/11/26 13:41:24;;;;;;;;;;;17.40;93.80;;;;;;5067056;28;19908;-92
2022/11/26 13:43:59;;;;;;;;;;;17.30;93.80;;;;;;5084457;28;19947;-92
2022/11/26 13:46:29;;;;;;;;;;;17.30;93.80;;;;;;5067624;28;19909;-93
2022/11/26 13:49:14;;;;;;;;;;;17.30;93.90;;;;;;5083499;28;19909;-93
2022/11/26 13:51:42;;;;;;;;;;;17.30;94.00;;;;;;5066053;28;19908;-93
2022/11/26 13:54:27;;;;;;;;;;;17.30;94.00;;;;;;5070028;28;19980;-93
2022/11/26 13:57:06;;;;;;;;;;;17.30;94.10;;;;;;5066761;28;19958;-93
2022/11/26 13:59:32;;;;;;;;;;;17.30;94.10;;;;;;5085171;28;19923;-93
2022/11/26 14:02:20;;;;;;;;;;;17.20;94.10;;;;;;5085098;28;19912;-93
2022/11/26 14:04:48;;;;;;;;;;;17.20;94.20;;;;;;5085009;28;19908;-93
2022/11/26 14:07:14;;;;;;;;;;;17.20;94.30;;;;;;5069642;28;19908;-93
2022/11/26 14:09:47;;;;;;;;;;;17.10;94.30;;;;;;5069389;28;19908;-92
2022/11/26 14:12:15;;;;;;;;;;;17.10;94.40;;;;;;5088279;28;20013;-93
2022/11/26 14:14:41;;;;;;;;;;;17.10;94.40;;;;;;5086395;28;19908;-93
2022/11/26 14:17:13;;;;;;;;;;;17.00;94.50;;;;;;5087333;28;19923;-93
2022/11/26 14:19:41;;;;;;;;;;;17.00;94.90;;;;;;5087839;28;19912;-92
2022/11/26 14:22:28;;;;;;;;;;;17.00;94.70;;;;;;5070801;28;20356;-93
2022/11/26 14:24:55;;;;;;;;;;;17.00;94.80;;;;;;5069452;28;19932;-93
2022/11/26 14:27:28;;;;;;;;;;;16.90;94.80;;;;;;5087038;28;20184;-93
2022/11/26 14:29:57;;;;;;;;;;;16.90;94.90;;;;;;5085728;28;20057;-93
2022/11/26 14:32:27;;;;;;;;;;;16.90;95.00;;;;;;5067541;28;20260;-93
2022/11/26 14:34:54;;;;;;;;;;;16.90;95.00;;;;;;5082779;28;20436;-92
2022/11/26 14:37:21;;;;;;;;;;;16.80;95.10;;;;;;5082660;28;20052;-91